createdAt,value
2018-12-17T00:01:47.691Z,100.00
2018-12-17T00:04:16.742Z,99.78
2018-12-17T00:06:45.647Z,98.70
2018-12-17T00:09:14.777Z,98.37
2018-12-17T00:11:43.999Z,97.73
2018-12-17T00:14:12.880Z,99.39
2018-12-17T00:16:41.948Z,100.00
2018-12-17T00:19:11.864Z,99.50
2018-12-17T00:21:41.015Z,99.69
2018-12-17T00:24:09.935Z,99.80
2018-12-17T00:26:38.833Z,100.00
2018-12-17T00:29:07.881Z,100.00
2018-12-17T00:31:37.210Z,100.00
2018-12-17T00:34:06.173Z,100.00
2018-12-17T00:36:35.091Z,99.22
2018-12-17T00:39:07.183Z,98.76
2018-12-17T00:41:36.551Z,99.71
2018-12-17T00:44:05.805Z,100.00
2018-12-17T00:46:34.825Z,100.00
2018-12-17T00:49:03.770Z,100.00
2018-12-17T00:51:32.902Z,100.00
2018-12-17T00:54:01.922Z,100.00
2018-12-17T00:56:30.852Z,100.00
2018-12-17T00:58:59.812Z,100.00
2018-12-17T01:01:28.686Z,100.00
2018-12-17T01:03:57.599Z,100.00
2018-12-17T01:06:26.565Z,100.00
2018-12-17T01:08:55.515Z,100.00
2018-12-17T01:11:24.377Z,100.00
2018-12-17T01:13:53.418Z,100.00
2018-12-17T01:16:22.401Z,100.00
2018-12-17T01:18:51.433Z,100.00
2018-12-17T01:21:20.993Z,100.00
2018-12-17T01:23:50.426Z,100.00
2018-12-17T01:26:20.983Z,100.00
2018-12-17T01:28:50.292Z,100.00
2018-12-17T01:31:19.264Z,100.00
2018-12-17T01:33:48.806Z,100.00
2018-12-17T01:36:17.810Z,100.00
2018-12-17T01:38:46.859Z,100.00
2018-12-17T01:41:15.984Z,100.00
2018-12-17T01:43:45.242Z,100.00
2018-12-17T01:46:14.186Z,100.00
2018-12-17T01:48:43.880Z,100.00
2018-12-17T01:51:12.877Z,100.00
2018-12-17T01:53:41.777Z,100.00
2018-12-17T01:56:10.795Z,100.00
2018-12-17T01:58:39.727Z,100.00
2018-12-17T02:01:08.674Z,100.00
2018-12-17T02:03:37.675Z,100.00
2018-12-17T02:06:06.818Z,100.00
2018-12-17T02:08:35.959Z,100.00
2018-12-17T02:11:05.252Z,100.00
2018-12-17T02:13:34.287Z,100.00
2018-12-17T02:16:03.178Z,100.00
2018-12-17T02:18:32.194Z,100.00
2018-12-17T02:21:01.371Z,100.00
2018-12-17T02:23:30.570Z,100.00
2018-12-17T02:25:59.517Z,100.00
2018-12-17T02:28:28.467Z,100.00
2018-12-17T02:30:57.379Z,100.00
2018-12-17T02:33:26.605Z,100.00
2018-12-17T02:35:55.537Z,100.00
2018-12-17T02:38:24.527Z,100.00
2018-12-17T02:40:53.443Z,100.00
2018-12-17T02:43:22.423Z,100.00
2018-12-17T02:45:51.928Z,100.00
2018-12-17T02:48:20.850Z,100.00
2018-12-17T02:50:49.801Z,100.00
2018-12-17T02:53:18.670Z,100.00
2018-12-17T02:55:48.118Z,100.00
2018-12-17T02:58:17.092Z,100.00
2018-12-17T03:00:46.143Z,100.00
2018-12-17T03:03:15.148Z,100.00
2018-12-17T03:05:44.634Z,100.00
2018-12-17T03:08:13.646Z,100.00
2018-12-17T03:10:42.650Z,100.00
2018-12-17T03:13:11.949Z,100.00
2018-12-17T03:15:40.846Z,100.00
2018-12-17T03:18:09.721Z,100.00
2018-12-17T03:20:39.243Z,100.00
2018-12-17T03:23:08.539Z,100.00
2018-12-17T03:25:37.461Z,100.00
2018-12-17T03:28:06.643Z,100.00
2018-12-17T03:30:35.664Z,100.00
2018-12-17T03:33:04.617Z,100.00
2018-12-17T03:35:33.677Z,100.00
2018-12-17T03:38:02.591Z,100.00
2018-12-17T03:40:31.679Z,100.00
2018-12-17T03:43:00.601Z,100.00
2018-12-17T03:45:29.549Z,100.00
2018-12-17T03:47:58.528Z,100.00
2018-12-17T03:50:27.470Z,100.00
2018-12-17T03:52:56.538Z,100.00
2018-12-17T03:55:25.453Z,100.00
2018-12-17T03:57:54.712Z,100.00
2018-12-17T04:00:23.876Z,100.00
2018-12-17T04:02:53.102Z,100.00
2018-12-17T04:05:22.690Z,100.00
2018-12-17T04:07:51.607Z,100.00
2018-12-17T04:10:20.569Z,100.00
2018-12-17T04:12:49.786Z,100.00
2018-12-17T04:15:18.786Z,100.00
2018-12-17T04:17:47.711Z,100.00
2018-12-17T04:20:16.720Z,100.00
2018-12-17T04:22:45.645Z,100.00
2018-12-17T04:25:14.652Z,100.00
2018-12-17T04:27:43.731Z,100.00
2018-12-17T04:30:13.042Z,100.00
2018-12-17T04:32:42.020Z,100.00
2018-12-17T04:35:11.008Z,100.00
2018-12-17T04:37:40.425Z,100.00
2018-12-17T04:40:09.306Z,100.00
2018-12-17T04:42:38.282Z,100.00
2018-12-17T04:45:09.112Z,100.00
2018-12-17T04:47:37.999Z,100.00
2018-12-17T04:50:07.030Z,100.00
2018-12-17T04:52:35.970Z,100.00
2018-12-17T04:55:05.420Z,100.00
2018-12-17T04:57:34.491Z,100.00
2018-12-17T05:00:03.921Z,100.00
2018-12-17T05:02:32.900Z,100.00
2018-12-17T05:05:01.824Z,100.00
2018-12-17T05:07:31.068Z,100.00
2018-12-17T05:10:00.263Z,100.00
2018-12-17T05:12:33.567Z,100.00
2018-12-17T05:15:03.788Z,100.00
2018-12-17T05:17:32.926Z,100.00
2018-12-17T05:20:01.939Z,100.00
2018-12-17T05:22:31.259Z,100.00
2018-12-17T05:25:00.444Z,100.00
2018-12-17T05:27:29.867Z,100.00
2018-12-17T05:29:58.844Z,100.00
2018-12-17T05:32:27.718Z,100.00
2018-12-17T05:34:56.673Z,100.00
2018-12-17T05:37:25.922Z,100.00
2018-12-17T05:39:55.088Z,100.00
2018-12-17T05:42:23.964Z,100.00
2018-12-17T05:44:53.075Z,100.00
2018-12-17T05:47:22.127Z,100.00
2018-12-17T05:49:51.031Z,100.00
2018-12-17T05:52:20.294Z,100.00
2018-12-17T05:54:49.537Z,100.00
2018-12-17T05:57:18.522Z,100.00
2018-12-17T05:59:47.453Z,100.00
2018-12-17T06:02:16.439Z,100.00
2018-12-17T06:04:45.470Z,100.00
2018-12-17T06:07:14.340Z,100.00
2018-12-17T06:09:43.410Z,100.00
2018-12-17T06:12:12.387Z,100.00
2018-12-17T06:14:41.367Z,100.00
2018-12-17T06:17:10.327Z,100.00
2018-12-17T06:19:39.249Z,100.00
2018-12-17T06:22:08.230Z,100.00
2018-12-17T06:24:37.348Z,100.00
2018-12-17T06:27:06.257Z,100.00
2018-12-17T06:29:35.681Z,100.00
2018-12-17T06:32:04.777Z,100.00
2018-12-17T06:34:33.736Z,100.00
2018-12-17T06:37:02.714Z,100.00
2018-12-17T06:39:32.196Z,100.00
2018-12-17T06:42:01.140Z,100.00
2018-12-17T06:44:30.047Z,100.00
2018-12-17T06:46:59.015Z,100.00
2018-12-17T06:49:28.962Z,100.00
2018-12-17T06:51:58.172Z,100.00
2018-12-17T06:54:27.570Z,100.00
2018-12-17T06:56:56.814Z,100.00
2018-12-17T06:59:25.780Z,100.00
2018-12-17T07:01:54.867Z,100.00
2018-12-17T07:04:23.888Z,100.00
2018-12-17T07:06:52.906Z,100.00
2018-12-17T07:09:21.900Z,100.00
2018-12-17T07:11:50.899Z,100.00
2018-12-17T07:14:20.141Z,100.00
2018-12-17T07:16:49.165Z,100.00
2018-12-17T07:19:18.119Z,100.00
2018-12-17T07:21:47.095Z,100.00
2018-12-17T07:24:16.656Z,100.00
2018-12-17T07:26:45.603Z,100.00
2018-12-17T07:29:14.517Z,100.00
2018-12-17T07:31:43.524Z,100.00
2018-12-17T07:34:12.457Z,100.00
2018-12-17T07:36:41.385Z,100.00
2018-12-17T07:39:10.240Z,100.00
2018-12-17T07:41:39.359Z,100.00
2018-12-17T07:44:08.279Z,100.00
2018-12-17T07:46:37.309Z,100.00
2018-12-17T07:49:06.215Z,100.00
2018-12-17T07:51:35.254Z,100.00
2018-12-17T07:54:05.195Z,100.00
2018-12-17T07:56:34.841Z,100.00
2018-12-17T07:59:03.857Z,100.00
2018-12-17T08:01:32.885Z,100.00
2018-12-17T08:04:01.787Z,100.00
2018-12-17T08:06:30.745Z,100.00
2018-12-17T08:09:00.012Z,100.00
2018-12-17T08:11:29.163Z,100.00
2018-12-17T08:13:58.057Z,100.00
2018-12-17T08:16:27.279Z,100.00
2018-12-17T08:18:57.148Z,100.00
2018-12-17T08:21:26.477Z,100.00
2018-12-17T08:23:55.561Z,100.00
2018-12-17T08:26:24.717Z,100.00
2018-12-17T08:28:53.623Z,100.00
2018-12-17T08:31:22.644Z,100.00
2018-12-17T08:33:51.724Z,100.00
2018-12-17T08:36:20.652Z,100.00
2018-12-17T08:38:49.578Z,100.00
2018-12-17T08:41:18.424Z,100.00
2018-12-17T08:43:47.380Z,100.00
2018-12-17T08:46:16.377Z,100.00
2018-12-17T08:48:45.283Z,100.00
2018-12-17T08:51:15.014Z,100.00
2018-12-17T08:53:43.929Z,100.00
2018-12-17T08:56:13.226Z,100.00
2018-12-17T08:58:42.209Z,100.00
2018-12-17T09:01:11.094Z,100.00
2018-12-17T09:03:40.194Z,100.00
2018-12-17T09:06:09.218Z,100.00
2018-12-17T09:08:38.436Z,100.00
2018-12-17T09:11:07.435Z,100.00
2018-12-17T09:13:36.348Z,100.00
2018-12-17T09:16:05.271Z,100.00
2018-12-17T09:18:34.184Z,100.00
2018-12-17T09:21:03.799Z,100.00
2018-12-17T09:23:32.724Z,100.00
2018-12-17T09:26:01.680Z,100.00
2018-12-17T09:28:30.578Z,100.00
2018-12-17T09:30:59.526Z,100.00
2018-12-17T09:33:28.760Z,100.00
2018-12-17T09:35:57.985Z,100.00
2018-12-17T09:38:27.252Z,100.00
2018-12-17T09:40:56.207Z,100.00
2018-12-17T09:43:26.027Z,100.00
2018-12-17T09:45:55.206Z,100.00
2018-12-17T09:48:24.295Z,100.00
2018-12-17T09:50:53.288Z,100.00
2018-12-17T09:53:22.138Z,100.00
2018-12-17T09:55:51.975Z,100.00
2018-12-17T09:58:20.949Z,100.00
2018-12-17T10:00:50.229Z,100.00
2018-12-17T10:03:19.156Z,100.00
2018-12-17T10:05:48.099Z,100.00
2018-12-17T10:08:17.061Z,100.00
2018-12-17T10:10:45.989Z,100.00
2018-12-17T10:13:14.940Z,100.00
2018-12-17T10:15:43.881Z,100.00
2018-12-17T10:18:13.816Z,100.00
2018-12-17T10:20:42.867Z,100.00
2018-12-17T10:23:11.800Z,100.00
2018-12-17T10:28:19.936Z,100.00
2018-12-17T10:30:48.801Z,100.00
2018-12-17T10:33:17.772Z,100.00
2018-12-17T10:35:46.810Z,100.00
2018-12-17T10:38:15.754Z,100.00
2018-12-17T10:40:45.027Z,100.00
2018-12-17T10:43:14.346Z,100.00
2018-12-17T10:45:43.345Z,100.00
2018-12-17T10:48:13.488Z,100.00
2018-12-17T10:50:42.337Z,100.00
2018-12-17T10:53:11.259Z,100.00
2018-12-17T10:55:40.176Z,100.00
2018-12-17T10:58:09.158Z,100.00
2018-12-17T11:00:43.752Z,100.00
2018-12-17T11:03:17.187Z,100.00
2018-12-17T11:05:46.783Z,100.00
2018-12-17T11:08:15.966Z,100.00
2018-12-17T11:10:44.998Z,100.00
2018-12-17T11:13:13.892Z,100.00
2018-12-17T11:15:42.773Z,100.00
2018-12-17T11:18:11.694Z,100.00
2018-12-17T11:20:40.998Z,100.00
2018-12-17T11:23:10.914Z,100.00
2018-12-17T11:25:39.825Z,100.00
2018-12-17T11:28:08.870Z,100.00
2018-12-17T11:30:37.840Z,100.00
2018-12-17T11:33:06.871Z,100.00
2018-12-17T11:35:35.826Z,100.00
2018-12-17T11:38:04.856Z,100.00
2018-12-17T11:40:33.850Z,100.00
2018-12-17T11:43:02.774Z,100.00
2018-12-17T11:45:31.670Z,100.00
2018-12-17T11:48:00.732Z,100.00
2018-12-17T11:50:29.671Z,100.00
2018-12-17T11:52:58.636Z,100.00
2018-12-17T11:55:27.687Z,100.00
2018-12-17T11:58:15.220Z,100.00
2018-12-17T12:01:03.824Z,100.00
2018-12-17T12:03:36.614Z,100.00
2018-12-17T12:06:05.902Z,100.00
2018-12-17T12:08:34.880Z,100.00
2018-12-17T12:11:04.145Z,100.00
2018-12-17T12:13:33.046Z,100.00
2018-12-17T12:16:02.106Z,100.00
2018-12-17T12:18:31.115Z,100.00
2018-12-17T12:21:00.062Z,100.00
2018-12-17T12:23:29.126Z,100.00
2018-12-17T12:25:58.125Z,100.00
2018-12-17T12:28:27.012Z,100.00
2018-12-17T12:31:00.444Z,100.00
2018-12-17T12:33:27.508Z,100.00
2018-12-17T12:35:58.448Z,100.00
2018-12-17T12:38:34.068Z,100.00
2018-12-17T12:41:04.033Z,99.58
2018-12-17T12:43:33.401Z,100.00
2018-12-17T12:46:02.768Z,100.00
2018-12-17T12:48:32.360Z,100.00
2018-12-17T12:51:02.939Z,100.00
2018-12-17T12:53:32.011Z,99.71
2018-12-17T12:56:01.505Z,99.82
2018-12-17T12:58:30.605Z,100.00
2018-12-17T13:01:07.383Z,100.00
2018-12-17T13:03:32.476Z,99.47
2018-12-17T13:06:02.054Z,99.13
2018-12-17T13:08:32.231Z,99.84
2018-12-17T13:11:01.216Z,99.02
2018-12-17T13:13:30.166Z,99.25
2018-12-17T13:15:59.337Z,99.30
2018-12-17T13:18:29.580Z,98.62
2018-12-17T13:20:59.534Z,99.38
2018-12-17T13:23:28.447Z,99.39
2018-12-17T13:25:57.575Z,99.66
2018-12-17T13:28:26.538Z,98.26
2018-12-17T13:30:55.895Z,98.72
2018-12-17T13:33:25.540Z,99.37
2018-12-17T13:35:55.048Z,99.77
2018-12-17T13:38:24.660Z,99.63
2018-12-17T13:40:55.630Z,99.75
2018-12-17T13:43:24.789Z,99.89
2018-12-17T13:45:53.874Z,99.82
2018-12-17T13:48:23.165Z,99.55
2018-12-17T13:50:52.107Z,100.00
2018-12-17T13:53:26.913Z,99.88
2018-12-17T13:55:56.583Z,100.00
2018-12-17T13:58:27.375Z,100.00
2018-12-17T14:00:56.279Z,100.00
2018-12-17T14:03:25.174Z,100.00
2018-12-17T14:05:54.322Z,100.00
2018-12-17T14:08:23.347Z,100.00
2018-12-17T14:10:54.054Z,100.00
2018-12-17T14:13:23.436Z,100.00
2018-12-17T14:15:57.816Z,100.00
2018-12-17T14:18:32.810Z,100.00
2018-12-17T14:21:07.403Z,100.00
2018-12-17T14:23:36.983Z,100.00
2018-12-17T14:26:07.261Z,100.00
2018-12-17T14:28:36.853Z,100.00
2018-12-17T14:31:06.398Z,100.00
2018-12-17T14:33:35.771Z,100.00
2018-12-17T14:36:08.536Z,100.00
2018-12-17T14:38:39.675Z,100.00
2018-12-17T14:41:10.197Z,100.00
2018-12-17T14:43:40.401Z,100.00
2018-12-17T14:46:09.558Z,100.00
2018-12-17T14:48:39.346Z,100.00
2018-12-17T14:51:09.404Z,100.00
2018-12-17T14:53:38.806Z,100.00
2018-12-17T14:56:08.680Z,100.00
2018-12-17T14:58:44.256Z,100.00
2018-12-17T15:01:08.892Z,100.00
2018-12-17T15:03:38.282Z,100.00
2018-12-17T15:06:07.212Z,100.00
2018-12-17T15:08:36.094Z,100.00
2018-12-17T15:11:05.391Z,100.00
2018-12-17T15:13:34.318Z,100.00
2018-12-17T15:16:03.199Z,100.00
2018-12-17T15:18:32.042Z,100.00
2018-12-17T15:21:01.257Z,100.00
2018-12-17T15:23:30.147Z,100.00
2018-12-17T15:25:59.487Z,100.00
2018-12-17T15:28:28.645Z,100.00
2018-12-17T15:30:57.726Z,100.00
2018-12-17T15:33:26.625Z,100.00
2018-12-17T15:35:55.962Z,100.00
2018-12-17T15:38:24.990Z,100.00
2018-12-17T15:40:53.961Z,100.00
2018-12-17T15:43:22.974Z,100.00
2018-12-17T15:45:51.896Z,100.00
2018-12-17T15:48:21.115Z,100.00
2018-12-17T15:50:50.517Z,100.00
2018-12-17T15:53:19.412Z,100.00
2018-12-17T15:55:48.645Z,100.00
2018-12-17T15:58:17.579Z,100.00
2018-12-17T16:00:46.588Z,100.00
2018-12-17T16:03:15.646Z,100.00
2018-12-17T16:05:44.546Z,100.00
2018-12-17T16:08:13.425Z,100.00
2018-12-17T16:10:42.496Z,100.00
2018-12-17T16:13:11.411Z,100.00
2018-12-17T16:15:40.382Z,100.00
2018-12-17T16:18:09.354Z,100.00
2018-12-17T16:20:38.317Z,100.00
2018-12-17T16:23:07.255Z,100.00
2018-12-17T16:25:36.210Z,100.00
2018-12-17T16:28:05.214Z,100.00
2018-12-17T16:30:34.104Z,100.00
2018-12-17T16:33:03.071Z,100.00
2018-12-17T16:35:31.991Z,100.00
2018-12-17T16:38:01.377Z,100.00
2018-12-17T16:40:30.808Z,100.00
2018-12-17T16:43:00.272Z,100.00
2018-12-17T16:45:29.170Z,100.00
2018-12-17T16:47:58.316Z,100.00
2018-12-17T16:50:27.248Z,100.00
2018-12-17T16:52:56.502Z,100.00
2018-12-17T16:55:25.496Z,100.00
2018-12-17T16:57:54.555Z,100.00
2018-12-17T17:00:23.462Z,100.00
2018-12-17T17:02:52.953Z,100.00
2018-12-17T17:05:22.027Z,100.00
2018-12-17T17:07:50.973Z,100.00
2018-12-17T17:10:20.304Z,100.00
2018-12-17T17:12:49.261Z,100.00
2018-12-17T17:15:18.233Z,100.00
2018-12-17T17:17:47.267Z,100.00
2018-12-17T17:20:16.427Z,100.00
2018-12-17T17:22:45.348Z,100.00
2018-12-17T17:25:14.303Z,100.00
2018-12-17T17:27:43.156Z,100.00
2018-12-17T17:30:12.306Z,100.00
2018-12-17T17:32:41.242Z,100.00
2018-12-17T17:35:10.209Z,100.00
2018-12-17T17:37:39.162Z,100.00
2018-12-17T17:40:08.317Z,100.00
2018-12-17T17:42:37.257Z,100.00
2018-12-17T17:45:06.683Z,100.00
2018-12-17T17:47:35.728Z,100.00
2018-12-17T17:50:05.524Z,100.00
2018-12-17T17:52:34.459Z,100.00
2018-12-17T17:55:03.574Z,100.00
2018-12-17T17:57:32.510Z,100.00
2018-12-17T18:00:01.736Z,100.00
2018-12-17T18:02:31.103Z,100.00
2018-12-17T18:05:00.558Z,100.00
2018-12-17T18:07:29.533Z,100.00
2018-12-17T18:09:58.416Z,100.00
2018-12-17T18:12:27.571Z,100.00
2018-12-17T18:14:56.876Z,100.00
2018-12-17T18:17:26.133Z,100.00
2018-12-17T18:19:55.340Z,100.00
2018-12-17T18:22:24.240Z,100.00
2018-12-17T18:24:53.348Z,100.00
2018-12-17T18:27:22.758Z,100.00
2018-12-17T18:29:51.806Z,100.00
2018-12-17T18:32:25.948Z,100.00
2018-12-17T18:34:51.766Z,100.00
2018-12-17T18:37:20.610Z,100.00
2018-12-17T18:39:49.510Z,100.00
2018-12-17T18:42:19.138Z,100.00
2018-12-17T18:44:48.151Z,100.00
2018-12-17T18:47:17.027Z,100.00
2018-12-17T18:49:45.978Z,100.00
2018-12-17T18:52:14.869Z,100.00
2018-12-17T18:54:44.189Z,100.00
2018-12-17T18:57:13.119Z,100.00
2018-12-17T18:59:42.022Z,100.00
2018-12-17T19:02:11.168Z,100.00
2018-12-17T19:04:40.093Z,100.00
2018-12-17T19:07:09.188Z,100.00
2018-12-17T19:09:38.434Z,100.00
2018-12-17T19:12:08.831Z,100.00
2018-12-17T19:14:37.754Z,100.00
2018-12-17T19:17:06.646Z,100.00
2018-12-17T19:19:36.443Z,100.00
2018-12-17T19:22:05.607Z,100.00
2018-12-17T19:24:34.553Z,100.00
2018-12-17T19:27:03.506Z,100.00
2018-12-17T19:29:32.400Z,100.00
2018-12-17T19:32:02.618Z,100.00
2018-12-17T19:34:31.641Z,100.00
2018-12-17T19:37:00.569Z,100.00
2018-12-17T19:39:29.906Z,100.00
2018-12-17T19:41:58.811Z,100.00
2018-12-17T19:44:29.112Z,100.00
2018-12-17T19:46:58.013Z,100.00
2018-12-17T19:49:26.966Z,100.00
2018-12-17T19:51:55.842Z,100.00
2018-12-17T19:54:24.820Z,100.00
2018-12-17T19:56:53.709Z,100.00
2018-12-17T19:59:22.677Z,100.00
2018-12-17T20:01:51.611Z,100.00
2018-12-17T20:04:20.508Z,100.00
2018-12-17T20:06:49.484Z,100.00
2018-12-17T20:09:19.184Z,100.00
2018-12-17T20:11:48.181Z,100.00
2018-12-17T20:14:17.687Z,100.00
2018-12-17T20:16:46.692Z,100.00
2018-12-17T20:19:15.613Z,100.00
2018-12-17T20:21:44.633Z,100.00
2018-12-17T20:24:13.824Z,100.00
2018-12-17T20:26:42.895Z,100.00
2018-12-17T20:29:12.705Z,100.00
2018-12-17T20:31:41.838Z,100.00
2018-12-17T20:34:11.819Z,100.00
2018-12-17T20:36:41.440Z,100.00
2018-12-17T20:39:10.403Z,100.00
2018-12-17T20:41:39.695Z,100.00
2018-12-17T20:44:09.416Z,100.00
2018-12-17T20:46:38.580Z,100.00
2018-12-17T20:49:08.428Z,100.00
2018-12-17T20:51:37.705Z,100.00
2018-12-17T20:54:06.690Z,100.00
2018-12-17T20:56:35.747Z,100.00
2018-12-17T20:59:04.671Z,100.00
2018-12-17T21:01:33.660Z,100.00
2018-12-17T21:04:02.838Z,100.00
2018-12-17T21:06:31.736Z,100.00
2018-12-17T21:09:00.630Z,100.00
2018-12-17T21:11:29.564Z,100.00
2018-12-17T21:13:58.552Z,100.00
2018-12-17T21:16:27.527Z,100.00
2018-12-17T21:18:56.543Z,100.00
2018-12-17T21:21:25.749Z,100.00
2018-12-17T21:23:54.611Z,100.00
2018-12-17T21:26:23.675Z,100.00
2018-12-17T21:28:52.601Z,100.00
2018-12-17T21:31:21.918Z,100.00
2018-12-17T21:33:50.970Z,100.00
2018-12-17T21:36:20.375Z,100.00
2018-12-17T21:38:49.374Z,100.00
2018-12-17T21:41:19.475Z,100.00
2018-12-17T21:43:48.383Z,100.00
2018-12-17T21:46:17.293Z,100.00
2018-12-17T21:48:46.560Z,100.00
2018-12-17T21:51:16.238Z,100.00
2018-12-17T21:53:45.164Z,100.00
2018-12-17T21:56:14.171Z,100.00
2018-12-17T21:58:43.846Z,100.00
2018-12-17T22:01:13.338Z,100.00
2018-12-17T22:03:42.643Z,100.00
2018-12-17T22:06:11.612Z,100.00
2018-12-17T22:08:40.452Z,100.00
2018-12-17T22:11:09.411Z,100.00
2018-12-17T22:13:38.660Z,100.00
2018-12-17T22:16:07.933Z,100.00
2018-12-17T22:18:37.232Z,100.00
2018-12-17T22:21:06.770Z,100.00
2018-12-17T22:23:37.340Z,100.00
2018-12-17T22:26:06.201Z,100.00
2018-12-17T22:28:35.204Z,100.00
2018-12-17T22:31:04.203Z,100.00
2018-12-17T22:33:33.108Z,100.00
2018-12-17T22:36:02.669Z,100.00
2018-12-17T22:38:31.580Z,100.00
2018-12-17T22:41:00.895Z,100.00
2018-12-17T22:43:29.800Z,100.00
2018-12-17T22:45:58.913Z,100.00
2018-12-17T22:48:28.231Z,100.00
2018-12-17T22:50:57.370Z,100.00
2018-12-17T22:53:26.294Z,100.00
2018-12-17T22:55:56.103Z,100.00
2018-12-17T22:58:24.983Z,100.00
2018-12-17T23:00:54.174Z,100.00
2018-12-17T23:03:26.316Z,100.00
2018-12-17T23:05:54.177Z,100.00
2018-12-17T23:08:23.051Z,100.00
2018-12-17T23:11:08.651Z,100.00
2018-12-17T23:13:54.269Z,100.00
2018-12-17T23:16:40.067Z,100.00
2018-12-17T23:19:07.107Z,100.00
2018-12-17T23:21:36.175Z,100.00
2018-12-17T23:24:05.620Z,100.00
2018-12-17T23:26:34.606Z,100.00
2018-12-17T23:29:03.978Z,100.00
2018-12-17T23:31:33.603Z,100.00
2018-12-17T23:34:02.657Z,100.00
2018-12-17T23:36:31.899Z,100.00
2018-12-17T23:39:00.806Z,100.00
2018-12-17T23:41:29.879Z,100.00
2018-12-17T23:43:58.975Z,100.00
2018-12-17T23:46:27.930Z,100.00
2018-12-17T23:48:57.155Z,100.00
2018-12-17T23:51:26.210Z,100.00
2018-12-17T23:53:55.105Z,100.00
2018-12-17T23:56:24.106Z,100.00
2018-12-17T23:58:53.019Z,100.00
